Airports Sweden Växjö Kronoberg Airport

Växjö Kronoberg Airport (ESMX / VXO)

Facts about Växjö Kronoberg Airport

Name Växjö Kronoberg Airport
City Vaxjo
Country Sweden
ICAO code ESMX
IATA code VXO
Elevation 185.9280 meters (610 feet)

Weather

METAR

Metar data retrieved Saturday, 20 July 2024 at 01:25 UTC (2 minutes ago)

ESMX 200050Z AUTO 25002KT 9999 NCD 12/12 Q1017

Live traffic

Navigraph Charts (account required)